createdAt,value
2023-01-13T00:06:44.902Z,92355.69
2023-01-13T00:15:08.711Z,92384.05
2023-01-13T00:23:32.806Z,92390.67
2023-01-13T00:31:54.963Z,92388.40
2023-01-13T00:40:17.049Z,92399.27
2023-01-13T00:48:40.488Z,92396.73
2023-01-13T00:57:04.264Z,92395.02
2023-01-13T01:05:26.447Z,92404.21
2023-01-13T01:13:51.988Z,92413.30
2023-01-13T01:22:14.236Z,92397.11
2023-01-13T01:30:39.106Z,92401.23
2023-01-13T01:39:01.058Z,92441.33
2023-01-13T01:47:24.401Z,92490.53
2023-01-13T01:55:46.737Z,92511.34
2023-01-13T02:04:20.061Z,92538.13
2023-01-13T02:12:44.889Z,92561.96
2023-01-13T02:21:24.753Z,92569.80
2023-01-13T02:30:33.573Z,92584.45
2023-01-13T02:39:02.487Z,92600.91
2023-01-13T02:47:31.308Z,92609.14
2023-01-13T02:55:55.025Z,92623.91
2023-01-13T03:04:49.301Z,92623.20
2023-01-13T03:13:49.498Z,92629.18
2023-01-13T03:22:22.490Z,92645.87
2023-01-13T03:30:53.805Z,92647.14
2023-01-13T03:39:24.496Z,92655.04
2023-01-13T03:47:54.734Z,92657.42
2023-01-13T03:56:40.446Z,92656.05
2023-01-13T04:05:06.316Z,92676.92
2023-01-13T04:13:33.322Z,92713.70
2023-01-13T04:21:55.026Z,92735.23
2023-01-13T04:30:16.940Z,92759.88
2023-01-13T04:38:38.734Z,92775.93
2023-01-13T04:47:01.992Z,92798.63
2023-01-13T04:55:24.734Z,92833.09
2023-01-13T05:03:46.780Z,92851.89
2023-01-13T05:12:28.579Z,92879.33
2023-01-13T05:20:51.578Z,92907.70
2023-01-13T05:29:13.448Z,92924.52
2023-01-13T05:37:35.710Z,92951.70
2023-01-13T05:46:04.087Z,92987.31
2023-01-13T05:54:27.626Z,93002.88
2023-01-13T06:02:49.617Z,93026.29
2023-01-13T06:11:12.311Z,93061.45
2023-01-13T06:19:35.400Z,93091.05
2023-01-13T06:28:00.317Z,93122.99
2023-01-13T09:20:26.845Z,93884.88
2023-01-13T09:28:49.090Z,93847.33
2023-01-13T09:37:11.195Z,93804.73
2023-01-13T09:45:51.027Z,93790.27
2023-01-13T09:54:24.654Z,93804.05
2023-01-13T10:03:03.787Z,93818.89
2023-01-13T10:11:50.972Z,93827.13
2023-01-13T10:20:45.072Z,93838.54
2023-01-13T10:29:39.703Z,93840.77
2023-01-13T10:38:01.587Z,93847.25
2023-01-13T10:46:23.998Z,93868.66
2023-01-13T10:54:52.225Z,93881.73
2023-01-13T11:03:23.872Z,93892.95
2023-01-13T11:12:27.810Z,93890.02
2023-01-13T11:20:55.407Z,93886.86
2023-01-13T11:29:29.249Z,93863.54
2023-01-13T11:37:57.909Z,93843.94
2023-01-13T13:51:46.362Z,94465.23
2023-01-13T14:00:15.535Z,94354.08
2023-01-13T14:08:46.628Z,94250.75
2023-01-13T14:17:28.720Z,94161.70
2023-01-13T14:25:52.493Z,94086.13
2023-01-13T14:34:32.498Z,94044.12
2023-01-13T14:43:04.224Z,94007.79
2023-01-13T14:51:29.725Z,93975.40
2023-01-13T14:59:57.483Z,93962.22
2023-01-13T15:08:34.884Z,93952.45
2023-01-13T15:16:58.038Z,93953.80
2023-01-13T15:25:21.970Z,93938.60
2023-01-13T15:33:45.131Z,93925.56
2023-01-13T15:42:30.807Z,93916.29
2023-01-13T15:50:54.001Z,93915.31
2023-01-13T15:59:22.274Z,93911.44
2023-01-13T16:07:45.567Z,93919.20
2023-01-13T16:16:24.855Z,93916.20
2023-01-13T16:24:48.480Z,93917.20
2023-01-13T16:33:11.498Z,93902.80
2023-01-13T16:41:34.926Z,93897.90
2023-01-13T16:49:57.789Z,93894.23
2023-01-13T16:58:21.414Z,93891.87
2023-01-13T17:07:00.564Z,93908.75
2023-01-13T17:15:23.492Z,93917.20
2023-01-13T17:23:46.558Z,93923.53
2023-01-13T17:32:15.643Z,93927.94
2023-01-13T17:40:38.517Z,93926.86
2023-01-13T17:49:01.401Z,93922.17
2023-01-13T17:57:24.392Z,93921.61
2023-01-13T18:05:47.286Z,93923.13
2023-01-13T18:14:11.514Z,93926.61
2023-01-13T18:22:53.751Z,93938.81
2023-01-13T18:31:16.724Z,93950.98
2023-01-13T18:39:41.107Z,93957.91
2023-01-13T18:48:05.871Z,93948.95
2023-01-13T18:56:29.612Z,93954.30
2023-01-13T19:04:53.960Z,93963.31
2023-01-13T19:13:18.495Z,93955.18
2023-01-13T19:21:41.425Z,93964.70
2023-01-13T19:30:04.844Z,93977.64
2023-01-13T19:38:28.128Z,93972.84
2023-01-13T19:46:51.151Z,93973.01
2023-01-13T19:55:14.392Z,93987.69
2023-01-13T20:03:38.122Z,93969.48
2023-01-13T20:12:27.456Z,93959.78
2023-01-13T20:20:50.312Z,93962.30
2023-01-13T20:29:13.644Z,93954.76
2023-01-13T20:37:40.919Z,93968.01
2023-01-13T20:46:04.899Z,93964.95
2023-01-13T20:54:27.865Z,93962.98
2023-01-13T21:02:50.744Z,93973.68
2023-01-13T21:11:15.202Z,93976.45
2023-01-13T21:19:38.151Z,93973.45
2023-01-13T21:28:09.521Z,94006.61
2023-01-13T21:36:32.415Z,94033.79
2023-01-13T21:45:14.094Z,94036.36
2023-01-13T21:53:37.039Z,94056.42
2023-01-13T22:02:23.826Z,94089.48
2023-01-13T22:11:00.495Z,94085.64
2023-01-13T22:19:24.207Z,94058.15
2023-01-13T22:27:49.186Z,94054.14
2023-01-13T22:36:12.210Z,94038.91
2023-01-13T22:44:35.376Z,94004.20
2023-01-13T22:52:58.237Z,93978.98
2023-01-13T23:01:21.431Z,93971.52
2023-01-13T23:09:44.308Z,93959.36
2023-01-13T23:18:07.138Z,93930.66
2023-01-13T23:26:31.222Z,93883.00
2023-01-13T23:34:54.188Z,93837.46
2023-01-13T23:43:17.182Z,93809.63
2023-01-13T23:51:40.194Z,93798.23
